sensor_id;sensor_type;location;lat;lon;timestamp;P1;durP1;ratioP1;P2;durP2;ratioP2
21761;SDS011;11203;50.870;20.682;2022-10-16T00:01:38;32.17;;;23.92;;
21761;SDS011;11203;50.870;20.682;2022-10-16T00:04:05;36.53;;;25.40;;
21761;SDS011;11203;50.870;20.682;2022-10-16T00:06:31;32.47;;;24.00;;
21761;SDS011;11203;50.870;20.682;2022-10-16T00:08:57;29.25;;;24.50;;
21761;SDS011;11203;50.870;20.682;2022-10-16T00:11:25;29.10;;;23.92;;
21761;SDS011;11203;50.870;20.682;2022-10-16T00:14:03;32.42;;;24.95;;
21761;SDS011;11203;50.870;20.682;2022-10-16T00:16:33;29.45;;;24.65;;
21761;SDS011;11203;50.870;20.682;2022-10-16T00:19:00;31.58;;;24.15;;
21761;SDS011;11203;50.870;20.682;2022-10-16T00:21:27;30.85;;;25.45;;
21761;SDS011;11203;50.870;20.682;2022-10-16T00:23:59;31.73;;;26.48;;
21761;SDS011;11203;50.870;20.682;2022-10-16T00:26:28;37.70;;;27.13;;
21761;SDS011;11203;50.870;20.682;2022-10-16T00:28:56;37.28;;;27.08;;
21761;SDS011;11203;50.870;20.682;2022-10-16T00:31:23;31.95;;;25.38;;
21761;SDS011;11203;50.870;20.682;2022-10-16T00:33:50;32.33;;;25.77;;
21761;SDS011;11203;50.870;20.682;2022-10-16T00:36:18;31.73;;;24.98;;
21761;SDS011;11203;50.870;20.682;2022-10-16T00:38:47;32.38;;;26.05;;
21761;SDS011;11203;50.870;20.682;2022-10-16T00:41:18;30.80;;;24.98;;
21761;SDS011;11203;50.870;20.682;2022-10-16T00:43:52;31.58;;;24.58;;
21761;SDS011;11203;50.870;20.682;2022-10-16T00:46:25;32.40;;;25.25;;
21761;SDS011;11203;50.870;20.682;2022-10-16T00:51:38;33.00;;;24.55;;
21761;SDS011;11203;50.870;20.682;2022-10-16T00:54:12;29.42;;;24.40;;
21761;SDS011;11203;50.870;20.682;2022-10-16T00:56:50;34.60;;;25.00;;
21761;SDS011;11203;50.870;20.682;2022-10-16T00:59:21;32.42;;;25.20;;
21761;SDS011;11203;50.870;20.682;2022-10-16T01:01:54;30.55;;;24.73;;
21761;SDS011;11203;50.870;20.682;2022-10-16T01:04:22;30.15;;;25.50;;
21761;SDS011;11203;50.870;20.682;2022-10-16T01:10:06;30.23;;;24.10;;
21761;SDS011;11203;50.870;20.682;2022-10-16T01:15:47;34.90;;;24.13;;
21761;SDS011;11203;50.870;20.682;2022-10-16T01:23:55;29.00;;;25.05;;
21761;SDS011;11203;50.870;20.682;2022-10-16T01:29:37;30.23;;;24.70;;
21761;SDS011;11203;50.870;20.682;2022-10-16T01:40:20;27.80;;;22.20;;
21761;SDS011;11203;50.870;20.682;2022-10-16T01:42:59;25.33;;;21.25;;
21761;SDS011;11203;50.870;20.682;2022-10-16T01:45:35;26.08;;;20.70;;
21761;SDS011;11203;50.870;20.682;2022-10-16T01:48:02;27.10;;;21.65;;
21761;SDS011;11203;50.870;20.682;2022-10-16T01:50:33;24.90;;;20.35;;
21761;SDS011;11203;50.870;20.682;2022-10-16T01:53:04;27.30;;;21.30;;
21761;SDS011;11203;50.870;20.682;2022-10-16T01:55:33;24.08;;;20.70;;
21761;SDS011;11203;50.870;20.682;2022-10-16T01:58:07;25.00;;;21.58;;
21761;SDS011;11203;50.870;20.682;2022-10-16T02:00:34;23.48;;;20.85;;
21761;SDS011;11203;50.870;20.682;2022-10-16T02:03:03;29.17;;;21.35;;
21761;SDS011;11203;50.870;20.682;2022-10-16T02:05:32;24.48;;;20.70;;
21761;SDS011;11203;50.870;20.682;2022-10-16T02:08:04;26.92;;;21.08;;
21761;SDS011;11203;50.870;20.682;2022-10-16T02:10:30;24.83;;;20.33;;
21761;SDS011;11203;50.870;20.682;2022-10-16T02:12:58;24.95;;;20.83;;
21761;SDS011;11203;50.870;20.682;2022-10-16T02:15:31;26.48;;;21.13;;
21761;SDS011;11203;50.870;20.682;2022-10-16T02:17:58;28.50;;;22.75;;
21761;SDS011;11203;50.870;20.682;2022-10-16T02:20:25;22.33;;;19.70;;
21761;SDS011;11203;50.870;20.682;2022-10-16T02:22:54;24.55;;;21.40;;
21761;SDS011;11203;50.870;20.682;2022-10-16T02:25:24;23.83;;;18.92;;
21761;SDS011;11203;50.870;20.682;2022-10-16T02:28:19;23.42;;;18.95;;
21761;SDS011;11203;50.870;20.682;2022-10-16T02:30:59;23.88;;;19.75;;
21761;SDS011;11203;50.870;20.682;2022-10-16T02:33:30;21.73;;;19.38;;
21761;SDS011;11203;50.870;20.682;2022-10-16T02:35:58;24.13;;;19.45;;
21761;SDS011;11203;50.870;20.682;2022-10-16T02:38:25;21.30;;;18.88;;
21761;SDS011;11203;50.870;20.682;2022-10-16T02:40:52;21.08;;;18.80;;
21761;SDS011;11203;50.870;20.682;2022-10-16T02:43:18;24.30;;;19.48;;
21761;SDS011;11203;50.870;20.682;2022-10-16T02:45:44;25.10;;;18.88;;
21761;SDS011;11203;50.870;20.682;2022-10-16T02:48:11;22.83;;;18.15;;
21761;SDS011;11203;50.870;20.682;2022-10-16T02:50:37;21.77;;;18.38;;
21761;SDS011;11203;50.870;20.682;2022-10-16T02:53:03;22.42;;;18.15;;
21761;SDS011;11203;50.870;20.682;2022-10-16T02:55:29;22.42;;;18.95;;
21761;SDS011;11203;50.870;20.682;2022-10-16T02:57:55;23.92;;;19.80;;
21761;SDS011;11203;50.870;20.682;2022-10-16T03:00:21;20.90;;;18.70;;
21761;SDS011;11203;50.870;20.682;2022-10-16T03:02:47;23.85;;;20.50;;
21761;SDS011;11203;50.870;20.682;2022-10-16T03:05:14;27.08;;;21.73;;
21761;SDS011;11203;50.870;20.682;2022-10-16T03:07:40;29.85;;;24.98;;
21761;SDS011;11203;50.870;20.682;2022-10-16T03:10:06;23.15;;;20.58;;
21761;SDS011;11203;50.870;20.682;2022-10-16T03:12:33;27.88;;;23.10;;
21761;SDS011;11203;50.870;20.682;2022-10-16T03:14:59;29.50;;;23.95;;
21761;SDS011;11203;50.870;20.682;2022-10-16T03:17:25;27.95;;;22.40;;
21761;SDS011;11203;50.870;20.682;2022-10-16T03:19:52;26.05;;;21.38;;
21761;SDS011;11203;50.870;20.682;2022-10-16T03:22:18;32.13;;;24.20;;
21761;SDS011;11203;50.870;20.682;2022-10-16T03:24:44;25.77;;;22.58;;
21761;SDS011;11203;50.870;20.682;2022-10-16T03:27:10;27.92;;;21.73;;
21761;SDS011;11203;50.870;20.682;2022-10-16T03:29:36;25.45;;;19.50;;
21761;SDS011;11203;50.870;20.682;2022-10-16T03:32:02;24.98;;;19.02;;
21761;SDS011;11203;50.870;20.682;2022-10-16T03:34:28;22.48;;;18.38;;
21761;SDS011;11203;50.870;20.682;2022-10-16T03:36:54;26.23;;;20.42;;
21761;SDS011;11203;50.870;20.682;2022-10-16T03:39:20;22.38;;;19.02;;
21761;SDS011;11203;50.870;20.682;2022-10-16T03:41:47;26.48;;;20.10;;
21761;SDS011;11203;50.870;20.682;2022-10-16T03:44:13;26.35;;;20.17;;
21761;SDS011;11203;50.870;20.682;2022-10-16T03:46:39;27.20;;;20.08;;
21761;SDS011;11203;50.870;20.682;2022-10-16T03:49:05;24.83;;;19.70;;
21761;SDS011;11203;50.870;20.682;2022-10-16T03:51:32;23.10;;;18.85;;
21761;SDS011;11203;50.870;20.682;2022-10-16T03:53:58;24.98;;;20.58;;
21761;SDS011;11203;50.870;20.682;2022-10-16T03:56:24;24.60;;;20.67;;
21761;SDS011;11203;50.870;20.682;2022-10-16T03:58:50;28.73;;;20.55;;
21761;SDS011;11203;50.870;20.682;2022-10-16T04:01:16;26.13;;;20.85;;
21761;SDS011;11203;50.870;20.682;2022-10-16T04:03:42;24.10;;;19.30;;
21761;SDS011;11203;50.870;20.682;2022-10-16T04:06:08;27.35;;;19.98;;
21761;SDS011;11203;50.870;20.682;2022-10-16T04:08:34;26.70;;;20.63;;
21761;SDS011;11203;50.870;20.682;2022-10-16T04:11:02;24.13;;;20.15;;
21761;SDS011;11203;50.870;20.682;2022-10-16T04:13:29;23.60;;;20.27;;
21761;SDS011;11203;50.870;20.682;2022-10-16T04:15:55;22.90;;;18.88;;
21761;SDS011;11203;50.870;20.682;2022-10-16T04:18:21;22.73;;;19.40;;
21761;SDS011;11203;50.870;20.682;2022-10-16T04:20:47;20.58;;;18.30;;
21761;SDS011;11203;50.870;20.682;2022-10-16T04:23:13;23.73;;;19.58;;
21761;SDS011;11203;50.870;20.682;2022-10-16T04:25:39;22.13;;;18.58;;
21761;SDS011;11203;50.870;20.682;2022-10-16T04:28:05;23.83;;;19.55;;
21761;SDS011;11203;50.870;20.682;2022-10-16T04:30:32;22.60;;;18.50;;
21761;SDS011;11203;50.870;20.682;2022-10-16T04:32:58;24.83;;;18.75;;
21761;SDS011;11203;50.870;20.682;2022-10-16T04:35:25;23.95;;;19.45;;
21761;SDS011;11203;50.870;20.682;2022-10-16T04:37:50;23.58;;;19.15;;
21761;SDS011;11203;50.870;20.682;2022-10-16T04:40:17;26.08;;;20.40;;
21761;SDS011;11203;50.870;20.682;2022-10-16T04:42:43;22.92;;;19.98;;
21761;SDS011;11203;50.870;20.682;2022-10-16T04:45:09;25.45;;;20.02;;
21761;SDS011;11203;50.870;20.682;2022-10-16T04:47:35;22.83;;;19.77;;
21761;SDS011;11203;50.870;20.682;2022-10-16T04:50:02;25.63;;;20.40;;
21761;SDS011;11203;50.870;20.682;2022-10-16T04:52:28;25.08;;;19.23;;
21761;SDS011;11203;50.870;20.682;2022-10-16T04:54:54;24.25;;;17.77;;
21761;SDS011;11203;50.870;20.682;2022-10-16T04:57:25;24.95;;;17.27;;
21761;SDS011;11203;50.870;20.682;2022-10-16T04:59:52;22.02;;;17.15;;
21761;SDS011;11203;50.870;20.682;2022-10-16T05:02:18;18.90;;;16.65;;
21761;SDS011;11203;50.870;20.682;2022-10-16T05:04:44;21.85;;;17.48;;
21761;SDS011;11203;50.870;20.682;2022-10-16T05:07:11;19.75;;;16.38;;
21761;SDS011;11203;50.870;20.682;2022-10-16T05:09:37;21.27;;;16.75;;
21761;SDS011;11203;50.870;20.682;2022-10-16T05:12:03;21.13;;;16.13;;
21761;SDS011;11203;50.870;20.682;2022-10-16T05:14:29;21.25;;;16.77;;
21761;SDS011;11203;50.870;20.682;2022-10-16T05:16:56;22.55;;;16.27;;
21761;SDS011;11203;50.870;20.682;2022-10-16T05:19:22;21.10;;;17.20;;
21761;SDS011;11203;50.870;20.682;2022-10-16T05:21:48;20.27;;;17.05;;
21761;SDS011;11203;50.870;20.682;2022-10-16T05:24:14;21.15;;;17.42;;
21761;SDS011;11203;50.870;20.682;2022-10-16T05:26:40;18.88;;;16.80;;
21761;SDS011;11203;50.870;20.682;2022-10-16T05:29:06;23.38;;;17.45;;
21761;SDS011;11203;50.870;20.682;2022-10-16T05:31:32;22.65;;;17.30;;
21761;SDS011;11203;50.870;20.682;2022-10-16T05:33:58;21.85;;;17.80;;
21761;SDS011;11203;50.870;20.682;2022-10-16T05:36:25;19.88;;;16.58;;
21761;SDS011;11203;50.870;20.682;2022-10-16T05:38:52;24.05;;;17.73;;
21761;SDS011;11203;50.870;20.682;2022-10-16T05:41:18;21.20;;;16.98;;
21761;SDS011;11203;50.870;20.682;2022-10-16T05:43:47;25.58;;;17.35;;
21761;SDS011;11203;50.870;20.682;2022-10-16T05:46:13;24.33;;;18.98;;
21761;SDS011;11203;50.870;20.682;2022-10-16T05:48:40;25.00;;;17.88;;
21761;SDS011;11203;50.870;20.682;2022-10-16T05:51:07;22.17;;;18.67;;
21761;SDS011;11203;50.870;20.682;2022-10-16T05:53:37;22.13;;;18.33;;
21761;SDS011;11203;50.870;20.682;2022-10-16T05:56:06;22.83;;;18.60;;
21761;SDS011;11203;50.870;20.682;2022-10-16T05:58:35;24.55;;;19.55;;
21761;SDS011;11203;50.870;20.682;2022-10-16T06:03:35;29.27;;;19.48;;
21761;SDS011;11203;50.870;20.682;2022-10-16T06:06:08;30.42;;;18.20;;
21761;SDS011;11203;50.870;20.682;2022-10-16T06:08:36;33.05;;;18.35;;
21761;SDS011;11203;50.870;20.682;2022-10-16T06:11:02;39.72;;;19.15;;
21761;SDS011;11203;50.870;20.682;2022-10-16T06:13:34;32.45;;;17.60;;
21761;SDS011;11203;50.870;20.682;2022-10-16T06:16:01;25.17;;;16.17;;
21761;SDS011;11203;50.870;20.682;2022-10-16T06:18:29;26.10;;;16.20;;
21761;SDS011;11203;50.870;20.682;2022-10-16T06:20:55;23.00;;;16.88;;
21761;SDS011;11203;50.870;20.682;2022-10-16T06:23:23;25.23;;;21.73;;
21761;SDS011;11203;50.870;20.682;2022-10-16T06:25:49;31.95;;;22.45;;
21761;SDS011;11203;50.870;20.682;2022-10-16T06:28:16;24.20;;;21.52;;
21761;SDS011;11203;50.870;20.682;2022-10-16T06:30:42;24.80;;;17.70;;
21761;SDS011;11203;50.870;20.682;2022-10-16T06:33:12;20.83;;;18.23;;
21761;SDS011;11203;50.870;20.682;2022-10-16T06:35:38;18.42;;;15.95;;
21761;SDS011;11203;50.870;20.682;2022-10-16T06:38:04;21.30;;;15.38;;
21761;SDS011;11203;50.870;20.682;2022-10-16T06:40:30;19.73;;;15.45;;
21761;SDS011;11203;50.870;20.682;2022-10-16T06:42:56;18.75;;;15.40;;
21761;SDS011;11203;50.870;20.682;2022-10-16T06:45:23;21.75;;;15.32;;
21761;SDS011;11203;50.870;20.682;2022-10-16T06:47:49;20.00;;;15.85;;
21761;SDS011;11203;50.870;20.682;2022-10-16T06:50:15;24.85;;;16.42;;
21761;SDS011;11203;50.870;20.682;2022-10-16T06:52:41;24.38;;;15.52;;
21761;SDS011;11203;50.870;20.682;2022-10-16T06:55:07;15.40;;;13.23;;
21761;SDS011;11203;50.870;20.682;2022-10-16T06:57:33;20.27;;;14.10;;
21761;SDS011;11203;50.870;20.682;2022-10-16T06:59:59;26.60;;;16.27;;
21761;SDS011;11203;50.870;20.682;2022-10-16T07:02:25;18.95;;;14.90;;
21761;SDS011;11203;50.870;20.682;2022-10-16T07:04:51;19.95;;;14.85;;
21761;SDS011;11203;50.870;20.682;2022-10-16T07:07:17;20.90;;;14.75;;
21761;SDS011;11203;50.870;20.682;2022-10-16T07:09:43;17.70;;;13.98;;
21761;SDS011;11203;50.870;20.682;2022-10-16T07:12:09;17.08;;;13.30;;
21761;SDS011;11203;50.870;20.682;2022-10-16T07:14:35;15.30;;;13.10;;
21761;SDS011;11203;50.870;20.682;2022-10-16T07:17:02;15.93;;;12.70;;
21761;SDS011;11203;50.870;20.682;2022-10-16T07:19:28;21.52;;;13.60;;
21761;SDS011;11203;50.870;20.682;2022-10-16T07:21:54;17.90;;;13.95;;
21761;SDS011;11203;50.870;20.682;2022-10-16T07:24:20;16.00;;;12.90;;
21761;SDS011;11203;50.870;20.682;2022-10-16T07:26:46;18.05;;;13.98;;
21761;SDS011;11203;50.870;20.682;2022-10-16T07:29:16;20.35;;;12.80;;
21761;SDS011;11203;50.870;20.682;2022-10-16T07:31:45;21.23;;;12.82;;
21761;SDS011;11203;50.870;20.682;2022-10-16T07:34:13;15.60;;;13.15;;
21761;SDS011;11203;50.870;20.682;2022-10-16T07:36:41;15.02;;;13.25;;
21761;SDS011;11203;50.870;20.682;2022-10-16T07:39:07;15.38;;;13.52;;
21761;SDS011;11203;50.870;20.682;2022-10-16T07:41:33;16.42;;;13.60;;
21761;SDS011;11203;50.870;20.682;2022-10-16T07:44:01;22.63;;;13.30;;
21761;SDS011;11203;50.870;20.682;2022-10-16T07:46:29;15.18;;;12.68;;
21761;SDS011;11203;50.870;20.682;2022-10-16T07:48:55;15.75;;;12.45;;
21761;SDS011;11203;50.870;20.682;2022-10-16T07:51:22;17.48;;;12.75;;
21761;SDS011;11203;50.870;20.682;2022-10-16T07:53:50;17.27;;;12.88;;
21761;SDS011;11203;50.870;20.682;2022-10-16T07:56:17;16.95;;;12.55;;
21761;SDS011;11203;50.870;20.682;2022-10-16T07:58:44;14.65;;;13.10;;
21761;SDS011;11203;50.870;20.682;2022-10-16T08:01:11;16.48;;;13.15;;
21761;SDS011;11203;50.870;20.682;2022-10-16T08:03:43;13.88;;;12.32;;
21761;SDS011;11203;50.870;20.682;2022-10-16T08:06:11;15.43;;;11.50;;
21761;SDS011;11203;50.870;20.682;2022-10-16T08:08:37;15.18;;;11.90;;
21761;SDS011;11203;50.870;20.682;2022-10-16T08:11:03;14.88;;;12.35;;
21761;SDS011;11203;50.870;20.682;2022-10-16T08:13:30;13.65;;;12.15;;
21761;SDS011;11203;50.870;20.682;2022-10-16T08:15:57;14.32;;;11.65;;
21761;SDS011;11203;50.870;20.682;2022-10-16T08:18:23;15.15;;;11.90;;
21761;SDS011;11203;50.870;20.682;2022-10-16T08:20:56;14.32;;;11.98;;
21761;SDS011;11203;50.870;20.682;2022-10-16T08:23:24;13.68;;;11.63;;
21761;SDS011;11203;50.870;20.682;2022-10-16T08:25:51;19.13;;;11.85;;
21761;SDS011;11203;50.870;20.682;2022-10-16T08:28:22;15.02;;;12.77;;
21761;SDS011;11203;50.870;20.682;2022-10-16T08:30:48;18.02;;;12.43;;
21761;SDS011;11203;50.870;20.682;2022-10-16T08:33:14;18.65;;;12.50;;
21761;SDS011;11203;50.870;20.682;2022-10-16T08:35:40;16.10;;;12.90;;
21761;SDS011;11203;50.870;20.682;2022-10-16T08:38:06;19.17;;;12.90;;
21761;SDS011;11203;50.870;20.682;2022-10-16T08:40:33;17.08;;;12.63;;
21761;SDS011;11203;50.870;20.682;2022-10-16T08:51:23;15.25;;;12.25;;
21761;SDS011;11203;50.870;20.682;2022-10-16T08:53:54;13.90;;;12.50;;
21761;SDS011;11203;50.870;20.682;2022-10-16T08:57:09;14.10;;;11.70;;
21761;SDS011;11203;50.870;20.682;2022-10-16T08:59:47;15.02;;;12.00;;
21761;SDS011;11203;50.870;20.682;2022-10-16T09:05:41;24.67;;;12.30;;
21761;SDS011;11203;50.870;20.682;2022-10-16T09:14:17;13.43;;;11.50;;
21761;SDS011;11203;50.870;20.682;2022-10-16T09:17:00;16.73;;;12.13;;
21761;SDS011;11203;50.870;20.682;2022-10-16T09:22:48;12.82;;;11.38;;
21761;SDS011;11203;50.870;20.682;2022-10-16T09:25:28;19.88;;;11.30;;
21761;SDS011;11203;50.870;20.682;2022-10-16T09:27:55;11.63;;;10.05;;
21761;SDS011;11203;50.870;20.682;2022-10-16T09:30:21;11.95;;;10.70;;
21761;SDS011;11203;50.870;20.682;2022-10-16T09:32:53;12.25;;;10.95;;
21761;SDS011;11203;50.870;20.682;2022-10-16T09:35:21;14.85;;;10.63;;
21761;SDS011;11203;50.870;20.682;2022-10-16T09:37:58;13.48;;;10.63;;
21761;SDS011;11203;50.870;20.682;2022-10-16T09:40:32;15.15;;;9.90;;
21761;SDS011;11203;50.870;20.682;2022-10-16T09:46:38;11.43;;;10.20;;
21761;SDS011;11203;50.870;20.682;2022-10-16T09:48:51;13.88;;;10.23;;
21761;SDS011;11203;50.870;20.682;2022-10-16T09:51:29;10.90;;;9.90;;
21761;SDS011;11203;50.870;20.682;2022-10-16T09:54:02;12.40;;;11.15;;
21761;SDS011;11203;50.870;20.682;2022-10-16T09:56:34;11.40;;;9.90;;
21761;SDS011;11203;50.870;20.682;2022-10-16T09:59:14;11.57;;;9.80;;
21761;SDS011;11203;50.870;20.682;2022-10-16T10:01:46;11.73;;;9.93;;
21761;SDS011;11203;50.870;20.682;2022-10-16T10:04:21;14.30;;;10.38;;
21761;SDS011;11203;50.870;20.682;2022-10-16T10:06:50;16.73;;;11.10;;
21761;SDS011;11203;50.870;20.682;2022-10-16T10:09:26;16.00;;;10.48;;
21761;SDS011;11203;50.870;20.682;2022-10-16T10:12:03;13.32;;;9.45;;
21761;SDS011;11203;50.870;20.682;2022-10-16T10:14:32;12.98;;;9.45;;
21761;SDS011;11203;50.870;20.682;2022-10-16T10:19:51;12.50;;;9.85;;
21761;SDS011;11203;50.870;20.682;2022-10-16T10:22:42;12.40;;;9.18;;
21761;SDS011;11203;50.870;20.682;2022-10-16T10:37:05;13.20;;;9.48;;
21761;SDS011;11203;50.870;20.682;2022-10-16T10:43:27;13.43;;;9.63;;
21761;SDS011;11203;50.870;20.682;2022-10-16T10:46:55;10.23;;;9.18;;
21761;SDS011;11203;50.870;20.682;2022-10-16T10:55:14;9.70;;;8.80;;
21761;SDS011;11203;50.870;20.682;2022-10-16T11:01:04;9.45;;;8.23;;
21761;SDS011;11203;50.870;20.682;2022-10-16T11:06:46;12.38;;;9.10;;
21761;SDS011;11203;50.870;20.682;2022-10-16T11:14:57;12.73;;;8.82;;
21761;SDS011;11203;50.870;20.682;2022-10-16T11:17:47;12.40;;;9.50;;
21761;SDS011;11203;50.870;20.682;2022-10-16T11:20:34;10.40;;;9.30;;
21761;SDS011;11203;50.870;20.682;2022-10-16T11:23:16;10.88;;;9.55;;
21761;SDS011;11203;50.870;20.682;2022-10-16T11:26:02;10.82;;;9.23;;
21761;SDS011;11203;50.870;20.682;2022-10-16T11:28:38;9.93;;;8.80;;
21761;SDS011;11203;50.870;20.682;2022-10-16T11:37:10;12.07;;;9.27;;
21761;SDS011;11203;50.870;20.682;2022-10-16T11:39:58;10.05;;;9.02;;
21761;SDS011;11203;50.870;20.682;2022-10-16T11:42:46;10.70;;;8.60;;
21761;SDS011;11203;50.870;20.682;2022-10-16T11:45:23;13.30;;;9.43;;
21761;SDS011;11203;50.870;20.682;2022-10-16T11:48:01;9.90;;;9.00;;
21761;SDS011;11203;50.870;20.682;2022-10-16T11:50:54;13.43;;;8.70;;
21761;SDS011;11203;50.870;20.682;2022-10-16T11:56:07;11.68;;;8.40;;
21761;SDS011;11203;50.870;20.682;2022-10-16T11:58:40;9.30;;;8.25;;
21761;SDS011;11203;50.870;20.682;2022-10-16T12:01:22;10.15;;;8.18;;
21761;SDS011;11203;50.870;20.682;2022-10-16T12:04:34;11.10;;;7.82;;
21761;SDS011;11203;50.870;20.682;2022-10-16T12:07:51;9.20;;;8.20;;
21761;SDS011;11203;50.870;20.682;2022-10-16T12:10:28;9.15;;;8.32;;
21761;SDS011;11203;50.870;20.682;2022-10-16T12:12:57;9.55;;;8.05;;
21761;SDS011;11203;50.870;20.682;2022-10-16T12:15:27;10.00;;;8.13;;
21761;SDS011;11203;50.870;20.682;2022-10-16T12:17:56;9.93;;;8.38;;
21761;SDS011;11203;50.870;20.682;2022-10-16T12:23:01;9.35;;;8.23;;
21761;SDS011;11203;50.870;20.682;2022-10-16T12:25:33;9.75;;;8.77;;
21761;SDS011;11203;50.870;20.682;2022-10-16T12:28:04;9.55;;;8.55;;
21761;SDS011;11203;50.870;20.682;2022-10-16T12:30:35;10.25;;;8.93;;
21761;SDS011;11203;50.870;20.682;2022-10-16T12:33:05;10.25;;;8.27;;
21761;SDS011;11203;50.870;20.682;2022-10-16T12:35:49;12.93;;;9.90;;
21761;SDS011;11203;50.870;20.682;2022-10-16T12:38:17;10.52;;;8.32;;
21761;SDS011;11203;50.870;20.682;2022-10-16T12:41:03;12.05;;;8.75;;
21761;SDS011;11203;50.870;20.682;2022-10-16T12:48:36;10.77;;;8.75;;
21761;SDS011;11203;50.870;20.682;2022-10-16T12:53:45;11.60;;;8.90;;
21761;SDS011;11203;50.870;20.682;2022-10-16T12:56:22;11.40;;;9.52;;
21761;SDS011;11203;50.870;20.682;2022-10-16T13:02:17;10.35;;;8.75;;
21761;SDS011;11203;50.870;20.682;2022-10-16T13:04:53;10.35;;;8.82;;
21761;SDS011;11203;50.870;20.682;2022-10-16T13:08:48;9.25;;;8.35;;
21761;SDS011;11203;50.870;20.682;2022-10-16T13:11:19;10.73;;;8.77;;
21761;SDS011;11203;50.870;20.682;2022-10-16T13:30:28;9.43;;;8.30;;
21761;SDS011;11203;50.870;20.682;2022-10-16T13:32:59;9.88;;;8.50;;
21761;SDS011;11203;50.870;20.682;2022-10-16T13:35:46;12.60;;;8.38;;
21761;SDS011;11203;50.870;20.682;2022-10-16T13:38:17;9.95;;;8.45;;
21761;SDS011;11203;50.870;20.682;2022-10-16T13:40:56;10.10;;;8.07;;
21761;SDS011;11203;50.870;20.682;2022-10-16T13:43:27;10.13;;;8.63;;
21761;SDS011;11203;50.870;20.682;2022-10-16T13:46:03;9.35;;;8.32;;
21761;SDS011;11203;50.870;20.682;2022-10-16T13:48:32;10.38;;;8.75;;
21761;SDS011;11203;50.870;20.682;2022-10-16T13:51:00;9.90;;;8.65;;
21761;SDS011;11203;50.870;20.682;2022-10-16T13:53:38;8.98;;;8.02;;
21761;SDS011;11203;50.870;20.682;2022-10-16T13:56:06;9.10;;;8.20;;
21761;SDS011;11203;50.870;20.682;2022-10-16T13:58:37;9.82;;;8.40;;
21761;SDS011;11203;50.870;20.682;2022-10-16T14:01:05;14.77;;;8.63;;
21761;SDS011;11203;50.870;20.682;2022-10-16T14:03:52;11.93;;;8.82;;
21761;SDS011;11203;50.870;20.682;2022-10-16T14:06:19;11.57;;;9.38;;
21761;SDS011;11203;50.870;20.682;2022-10-16T14:08:53;10.32;;;8.70;;
21761;SDS011;11203;50.870;20.682;2022-10-16T14:11:46;10.10;;;9.10;;
21761;SDS011;11203;50.870;20.682;2022-10-16T14:14:18;9.77;;;8.77;;
21761;SDS011;11203;50.870;20.682;2022-10-16T14:16:45;10.07;;;9.07;;
21761;SDS011;11203;50.870;20.682;2022-10-16T14:19:17;11.10;;;8.50;;
21761;SDS011;11203;50.870;20.682;2022-10-16T14:21:48;10.40;;;9.23;;
21761;SDS011;11203;50.870;20.682;2022-10-16T14:24:26;14.30;;;8.85;;
21761;SDS011;11203;50.870;20.682;2022-10-16T14:26:59;12.05;;;9.73;;
21761;SDS011;11203;50.870;20.682;2022-10-16T14:29:26;13.82;;;9.45;;
21761;SDS011;11203;50.870;20.682;2022-10-16T14:31:57;14.48;;;11.20;;
21761;SDS011;11203;50.870;20.682;2022-10-16T14:37:16;10.70;;;9.60;;
21761;SDS011;11203;50.870;20.682;2022-10-16T14:39:53;11.00;;;9.68;;
21761;SDS011;11203;50.870;20.682;2022-10-16T14:42:21;12.90;;;9.05;;
21761;SDS011;11203;50.870;20.682;2022-10-16T14:44:50;11.32;;;9.30;;
21761;SDS011;11203;50.870;20.682;2022-10-16T14:47:21;11.18;;;9.20;;
21761;SDS011;11203;50.870;20.682;2022-10-16T14:49:51;13.70;;;9.55;;
21761;SDS011;11203;50.870;20.682;2022-10-16T14:52:24;10.70;;;9.18;;
21761;SDS011;11203;50.870;20.682;2022-10-16T14:54:50;13.98;;;9.95;;
21761;SDS011;11203;50.870;20.682;2022-10-16T14:57:23;11.45;;;9.98;;
21761;SDS011;11203;50.870;20.682;2022-10-16T14:59:53;13.43;;;10.18;;
21761;SDS011;11203;50.870;20.682;2022-10-16T15:05:04;10.85;;;9.73;;
21761;SDS011;11203;50.870;20.682;2022-10-16T15:07:53;14.68;;;11.57;;
21761;SDS011;11203;50.870;20.682;2022-10-16T15:10:21;15.15;;;12.38;;
21761;SDS011;11203;50.870;20.682;2022-10-16T15:12:50;12.80;;;11.48;;
21761;SDS011;11203;50.870;20.682;2022-10-16T15:15:21;12.50;;;11.10;;
21761;SDS011;11203;50.870;20.682;2022-10-16T15:17:58;18.48;;;11.30;;
21761;SDS011;11203;50.870;20.682;2022-10-16T15:20:30;14.80;;;12.65;;
21761;SDS011;11203;50.870;20.682;2022-10-16T15:23:00;17.15;;;13.45;;
21761;SDS011;11203;50.870;20.682;2022-10-16T15:25:41;16.00;;;12.80;;
21761;SDS011;11203;50.870;20.682;2022-10-16T15:28:09;18.77;;;12.52;;
21761;SDS011;11203;50.870;20.682;2022-10-16T15:30:36;15.60;;;12.95;;
21761;SDS011;11203;50.870;20.682;2022-10-16T15:33:03;19.02;;;14.13;;
21761;SDS011;11203;50.870;20.682;2022-10-16T15:35:31;18.30;;;14.38;;
21761;SDS011;11203;50.870;20.682;2022-10-16T15:37:57;21.27;;;14.82;;
21761;SDS011;11203;50.870;20.682;2022-10-16T15:40:23;22.08;;;17.17;;
21761;SDS011;11203;50.870;20.682;2022-10-16T15:42:49;26.08;;;17.25;;
21761;SDS011;11203;50.870;20.682;2022-10-16T15:45:15;22.15;;;16.50;;
21761;SDS011;11203;50.870;20.682;2022-10-16T15:47:42;22.27;;;15.48;;
21761;SDS011;11203;50.870;20.682;2022-10-16T15:50:10;20.27;;;16.40;;
21761;SDS011;11203;50.870;20.682;2022-10-16T15:52:37;19.27;;;15.93;;
21761;SDS011;11203;50.870;20.682;2022-10-16T15:55:05;21.05;;;16.27;;
21761;SDS011;11203;50.870;20.682;2022-10-16T15:57:37;21.27;;;16.15;;
21761;SDS011;11203;50.870;20.682;2022-10-16T16:00:07;20.25;;;16.30;;
21761;SDS011;11203;50.870;20.682;2022-10-16T16:02:40;20.33;;;15.43;;
21761;SDS011;11203;50.870;20.682;2022-10-16T16:05:07;22.23;;;15.90;;
21761;SDS011;11203;50.870;20.682;2022-10-16T16:07:35;18.08;;;15.10;;
21761;SDS011;11203;50.870;20.682;2022-10-16T16:10:03;19.77;;;15.55;;
21761;SDS011;11203;50.870;20.682;2022-10-16T16:12:32;19.75;;;15.57;;
21761;SDS011;11203;50.870;20.682;2022-10-16T16:14:59;17.02;;;14.65;;
21761;SDS011;11203;50.870;20.682;2022-10-16T16:17:25;18.27;;;15.80;;
21761;SDS011;11203;50.870;20.682;2022-10-16T16:19:51;19.92;;;15.98;;
21761;SDS011;11203;50.870;20.682;2022-10-16T16:22:17;21.80;;;15.00;;
21761;SDS011;11203;50.870;20.682;2022-10-16T16:24:43;24.55;;;19.63;;
21761;SDS011;11203;50.870;20.682;2022-10-16T16:27:09;31.77;;;25.77;;
21761;SDS011;11203;50.870;20.682;2022-10-16T16:29:36;34.55;;;27.13;;
21761;SDS011;11203;50.870;20.682;2022-10-16T16:32:02;58.25;;;41.92;;
21761;SDS011;11203;50.870;20.682;2022-10-16T16:34:28;62.40;;;46.08;;
21761;SDS011;11203;50.870;20.682;2022-10-16T16:36:55;57.20;;;45.55;;
21761;SDS011;11203;50.870;20.682;2022-10-16T16:39:22;79.65;;;58.78;;
21761;SDS011;11203;50.870;20.682;2022-10-16T16:41:49;176.48;;;122.53;;
21761;SDS011;11203;50.870;20.682;2022-10-16T16:44:15;108.20;;;79.50;;
21761;SDS011;11203;50.870;20.682;2022-10-16T16:46:44;113.00;;;76.85;;